Terminal Aerodrome Forecast
Issued by NWS Bismarck, ND

Home | Current Version | Previous Version | Text Only | Print | Product List | Glossary Off
Versions: 1 2 3 4 5 6 7 8 9 10 11 12 13 14 15

986
FTUS43 KBIS 141955 AAB
TAFBIS
TAF AMD
KBIS 141955Z 1420/1518 34014G20KT P6SM SCT020 SCT070 OVC200
     FM142300 34012KT P6SM FEW030 SCT200
     FM150100 32007KT P6SM FEW025 FEW250
     FM150300 VRB03KT P6SM SKC
     FM151400 27008KT P6SM FEW035 SCT110
     FM151700 29015KT P6SM FEW200=

USA.gov is the U.S. government's official web portal to all federal, state and local government web resources and services.